Time;durP1;ratioP1;P1;durP2;ratioP2;P2;SDS_P1;SDS_P2;PMS_P1;PMS_P2;Temp;Humidity;BMP_temperature;BMP_pressure;BME280_temperature;BME280_humidity;BME280_pressure;Samples;Min_cycle;Max_cycle;Signal;HPM_P1;HPM_P2
2021/03/12 00:02:02;;;;;;;3.03;1.20;;;;;;;;;;4997185;28;20065;-76
2021/03/12 00:04:27;;;;;;;3.70;1.20;;;;;;;;;;4997343;28;20053;-76
2021/03/12 00:06:53;;;;;;;2.53;1.10;;;;;;;;;;4980915;28;20060;-76
2021/03/12 00:09:18;;;;;;;2.63;1.20;;;;;;;;;;4997180;28;20116;-76
2021/03/12 00:11:43;;;;;;;2.67;1.10;;;;;;;;;;4996881;28;20045;-76
2021/03/12 00:14:09;;;;;;;2.67;1.10;;;;;;;;;;4996970;28;20781;-76
2021/03/12 00:16:34;;;;;;;2.30;1.07;;;;;;;;;;4997167;28;20405;-76
2021/03/12 00:18:59;;;;;;;2.30;1.00;;;;;;;;;;4980796;28;20495;-76
2021/03/12 00:21:25;;;;;;;3.53;1.30;;;;;;;;;;5014390;28;20121;-76
2021/03/12 00:23:50;;;;;;;3.60;1.27;;;;;;;;;;4996883;28;20073;-76
2021/03/12 00:26:15;;;;;;;2.10;0.83;;;;;;;;;;4980769;28;20116;-76
2021/03/12 00:28:41;;;;;;;2.20;1.00;;;;;;;;;;4996875;28;20441;-76
2021/03/12 00:31:06;;;;;;;2.47;0.90;;;;;;;;;;4996244;28;20065;-76
2021/03/12 00:33:32;;;;;;;2.53;1.00;;;;;;;;;;5001838;22;20064;-77
2021/03/12 00:35:57;;;;;;;3.20;1.13;;;;;;;;;;5024624;28;20064;-77
2021/03/12 00:38:22;;;;;;;3.00;1.17;;;;;;;;;;5023806;28;20419;-77
2021/03/12 00:40:53;;;;;;;3.10;1.20;;;;;;;;;;5039632;28;20068;-77
2021/03/12 00:43:18;;;;;;;2.58;1.00;;;;;;;;;;5022075;28;20037;-77
2021/03/12 00:45:46;;;;;;;2.83;0.90;;;;;;;;;;5004552;28;20116;-77
2021/03/12 00:48:12;;;;;;;2.80;1.00;;;;;;;;;;5021777;28;20044;-77
2021/03/12 00:50:38;;;;;;;3.00;1.10;;;;;;;;;;5021900;28;20499;-77
2021/03/12 00:53:03;;;;;;;2.70;1.00;;;;;;;;;;5017816;28;20032;-77
2021/03/12 00:55:29;;;;;;;4.67;1.27;;;;;;;;;;5025349;28;20105;-77
2021/03/12 00:57:54;;;;;;;2.30;1.00;;;;;;;;;;5008252;28;20032;-77
2021/03/12 01:00:24;;;;;;;2.50;1.20;;;;;;;;;;5025313;28;20123;-77
2021/03/12 01:02:49;;;;;;;3.42;1.20;;;;;;;;;;5025056;28;20369;-77
2021/03/12 01:05:15;;;;;;;2.23;1.10;;;;;;;;;;5040820;28;20084;-77
2021/03/12 01:07:40;;;;;;;4.37;1.20;;;;;;;;;;5058239;28;20044;-77
2021/03/12 01:10:06;;;;;;;3.30;1.00;;;;;;;;;;5024354;28;20076;-77
2021/03/12 01:12:32;;;;;;;3.47;1.40;;;;;;;;;;5008601;28;20037;-78
2021/03/12 01:14:58;;;;;;;2.47;1.02;;;;;;;;;;5024685;28;20039;-77
2021/03/12 01:17:23;;;;;;;3.87;1.20;;;;;;;;;;5024637;28;20488;-77
2021/03/12 01:19:48;;;;;;;2.43;1.00;;;;;;;;;;5041330;28;20560;-77
2021/03/12 01:22:14;;;;;;;2.20;1.00;;;;;;;;;;5009534;28;20065;-77
2021/03/12 01:24:39;;;;;;;2.60;1.20;;;;;;;;;;5007942;28;20033;-77
2021/03/12 01:27:05;;;;;;;3.20;1.00;;;;;;;;;;5007929;28;20032;-77
2021/03/12 01:29:30;;;;;;;3.33;1.17;;;;;;;;;;5024206;28;20048;-77
2021/03/12 01:31:56;;;;;;;2.60;1.13;;;;;;;;;;5041185;28;20029;-77
2021/03/12 01:34:21;;;;;;;2.97;1.10;;;;;;;;;;5041250;28;20048;-77
2021/03/12 01:36:47;;;;;;;2.63;0.90;;;;;;;;;;5025026;28;20395;-77
2021/03/12 01:39:12;;;;;;;2.93;1.13;;;;;;;;;;5057193;28;20036;-77
2021/03/12 01:41:37;;;;;;;2.50;1.00;;;;;;;;;;5059009;28;20029;-77
2021/03/12 01:44:04;;;;;;;2.37;1.00;;;;;;;;;;5040904;28;20064;-77
2021/03/12 01:46:29;;;;;;;2.65;0.98;;;;;;;;;;5008094;28;20032;-77
2021/03/12 01:48:54;;;;;;;2.43;0.90;;;;;;;;;;5040881;28;20036;-77
2021/03/12 01:51:20;;;;;;;3.10;1.10;;;;;;;;;;5040545;28;20061;-77
2021/03/12 01:53:45;;;;;;;3.10;1.13;;;;;;;;;;5040075;28;20096;-77
2021/03/12 01:56:10;;;;;;;2.63;1.10;;;;;;;;;;5007349;28;20132;-77
2021/03/12 01:58:36;;;;;;;2.67;0.97;;;;;;;;;;5024805;28;20088;-77
2021/03/12 02:08:39;;;;;;;1.92;0.90;;;;;;;;;;5073855;28;20060;-76
2021/03/12 02:11:04;;;;;;;2.40;0.90;;;;;;;;;;5072195;28;20047;-76
2021/03/12 02:13:58;;;;;;;2.87;1.10;;;;;;;;;;5047369;28;20068;-75
2021/03/12 02:17:01;;;;;;;3.05;1.10;;;;;;;;;;5039541;28;20060;-76
2021/03/12 02:19:45;;;;;;;2.90;1.00;;;;;;;;;;5040927;28;20033;-76
2021/03/12 02:24:58;;;;;;;2.65;1.20;;;;;;;;;;5048268;28;20052;-76
2021/03/12 02:27:23;;;;;;;3.20;1.20;;;;;;;;;;5054618;28;20075;-76
2021/03/12 02:29:52;;;;;;;2.43;1.00;;;;;;;;;;4985953;28;20060;-76
2021/03/12 02:32:26;;;;;;;2.88;1.00;;;;;;;;;;5002673;28;20064;-76
2021/03/12 02:34:51;;;;;;;2.97;1.10;;;;;;;;;;5003185;28;20037;-76
2021/03/12 02:37:17;;;;;;;2.53;1.10;;;;;;;;;;5018417;28;20034;-76
2021/03/12 02:39:46;;;;;;;3.03;1.13;;;;;;;;;;5002227;28;20029;-76
2021/03/12 02:42:11;;;;;;;2.17;0.80;;;;;;;;;;5002201;28;20116;-76
2021/03/12 02:44:37;;;;;;;1.90;1.00;;;;;;;;;;5002091;28;20085;-76
2021/03/12 02:47:16;;;;;;;2.20;0.93;;;;;;;;;;5018269;28;20065;-76
2021/03/12 02:49:41;;;;;;;2.03;0.90;;;;;;;;;;5022038;28;20028;-76
2021/03/12 02:52:07;;;;;;;2.23;0.90;;;;;;;;;;5021590;28;20060;-76
2021/03/12 02:54:32;;;;;;;2.50;1.00;;;;;;;;;;5021492;28;20068;-76
2021/03/12 02:56:57;;;;;;;2.23;0.73;;;;;;;;;;5038104;28;20048;-76
2021/03/12 02:59:23;;;;;;;2.13;0.90;;;;;;;;;;5021448;28;20525;-76
2021/03/12 03:01:50;;;;;;;2.13;0.73;;;;;;;;;;5021665;28;20463;-76
2021/03/12 03:04:16;;;;;;;2.33;0.80;;;;;;;;;;5021551;28;20032;-76
2021/03/12 03:06:41;;;;;;;2.77;1.00;;;;;;;;;;5037711;28;20396;-76
2021/03/12 03:09:06;;;;;;;2.77;1.10;;;;;;;;;;5020759;28;20504;-76
2021/03/12 03:11:33;;;;;;;2.47;0.87;;;;;;;;;;5021147;28;20028;-76
2021/03/12 03:13:59;;;;;;;1.33;0.75;;;;;;;;;;5021347;28;20033;-76
2021/03/12 03:16:26;;;;;;;1.33;0.70;;;;;;;;;;5021265;28;20408;-76
2021/03/12 03:18:52;;;;;;;2.22;0.88;;;;;;;;;;5037539;28;20029;-76
2021/03/12 03:21:17;;;;;;;2.33;1.00;;;;;;;;;;5020903;28;20119;-76
2021/03/12 03:23:44;;;;;;;1.57;0.77;;;;;;;;;;5021134;28;20037;-76
2021/03/12 03:26:10;;;;;;;2.47;1.00;;;;;;;;;;5037284;28;20036;-76
2021/03/12 03:28:35;;;;;;;2.80;0.97;;;;;;;;;;5037432;28;20037;-76
2021/03/12 03:31:01;;;;;;;2.20;0.80;;;;;;;;;;5037145;28;20029;-76
2021/03/12 03:33:27;;;;;;;2.00;0.90;;;;;;;;;;5037274;28;20107;-76
2021/03/12 03:35:52;;;;;;;2.20;0.97;;;;;;;;;;5020921;28;20111;-76
2021/03/12 03:38:17;;;;;;;2.07;0.80;;;;;;;;;;5020763;28;20066;-76
2021/03/12 03:40:43;;;;;;;2.10;0.77;;;;;;;;;;5037166;28;20044;-76
2021/03/12 03:43:08;;;;;;;2.77;0.90;;;;;;;;;;5020495;28;20095;-76
2021/03/12 03:45:33;;;;;;;1.97;0.70;;;;;;;;;;5020538;28;20071;-76
2021/03/12 03:47:59;;;;;;;2.33;0.80;;;;;;;;;;5020533;28;20059;-76
2021/03/12 03:50:24;;;;;;;1.87;0.77;;;;;;;;;;5020404;28;20395;-76
2021/03/12 03:52:50;;;;;;;2.30;0.83;;;;;;;;;;5004100;28;20036;-76
2021/03/12 03:55:15;;;;;;;2.33;0.90;;;;;;;;;;5020244;28;20072;-76
2021/03/12 03:57:40;;;;;;;1.73;0.80;;;;;;;;;;5020384;28;20115;-76
2021/03/12 04:00:06;;;;;;;2.47;0.90;;;;;;;;;;5020131;28;20507;-76
2021/03/12 04:02:32;;;;;;;2.50;0.90;;;;;;;;;;5020225;28;20475;-76
2021/03/12 04:04:57;;;;;;;1.97;0.90;;;;;;;;;;5020055;28;20040;-76
2021/03/12 04:07:23;;;;;;;3.00;0.97;;;;;;;;;;5020177;28;20064;-76
2021/03/12 04:09:48;;;;;;;1.50;0.67;;;;;;;;;;5020304;28;20064;-76
2021/03/12 04:12:14;;;;;;;2.60;0.80;;;;;;;;;;5019927;28;20036;-76
2021/03/12 04:14:39;;;;;;;1.83;0.80;;;;;;;;;;5019992;28;20120;-76
2021/03/12 04:17:05;;;;;;;1.67;0.80;;;;;;;;;;5019924;28;20024;-76
2021/03/12 04:19:31;;;;;;;2.03;0.90;;;;;;;;;;5036449;28;20033;-76
2021/03/12 04:21:56;;;;;;;1.47;0.70;;;;;;;;;;5019095;28;20061;-76
2021/03/12 04:24:21;;;;;;;2.83;0.80;;;;;;;;;;5019781;28;20123;-76
2021/03/12 04:26:47;;;;;;;1.97;0.80;;;;;;;;;;5019770;28;20061;-76
2021/03/12 04:29:12;;;;;;;1.50;0.60;;;;;;;;;;5019744;28;20067;-76
2021/03/12 04:31:37;;;;;;;1.37;0.67;;;;;;;;;;5019638;28;20112;-76
2021/03/12 04:34:03;;;;;;;2.43;0.90;;;;;;;;;;5019722;28;20501;-76
2021/03/12 04:36:28;;;;;;;2.07;0.90;;;;;;;;;;5019512;28;20164;-76
2021/03/12 04:38:53;;;;;;;2.00;0.90;;;;;;;;;;5019561;28;20064;-76
2021/03/12 04:41:19;;;;;;;2.00;0.90;;;;;;;;;;5019626;28;20039;-76
2021/03/12 04:43:44;;;;;;;3.13;0.70;;;;;;;;;;5035945;28;20055;-76
2021/03/12 04:46:09;;;;;;;1.83;0.80;;;;;;;;;;5035832;28;20037;-76
2021/03/12 04:48:39;;;;;;;2.40;0.70;;;;;;;;;;5019367;28;20115;-76
2021/03/12 04:51:08;;;;;;;1.63;0.60;;;;;;;;;;5035733;28;20029;-76
2021/03/12 04:53:34;;;;;;;2.03;0.90;;;;;;;;;;5019379;28;20522;-76
2021/03/12 04:55:59;;;;;;;1.77;0.73;;;;;;;;;;5030345;28;20045;-76
2021/03/12 04:58:25;;;;;;;1.80;0.90;;;;;;;;;;5015648;28;20073;-76
2021/03/12 05:00:51;;;;;;;1.75;0.60;;;;;;;;;;4998057;28;20488;-76
2021/03/12 05:03:16;;;;;;;1.90;0.90;;;;;;;;;;4999486;28;20044;-76
2021/03/12 05:05:42;;;;;;;1.90;0.80;;;;;;;;;;5015194;28;20032;-76
2021/03/12 05:08:08;;;;;;;1.83;0.63;;;;;;;;;;5007875;28;20500;-76
2021/03/12 05:10:34;;;;;;;1.80;0.68;;;;;;;;;;5015653;28;20033;-76
2021/03/12 05:12:59;;;;;;;2.57;0.87;;;;;;;;;;5021548;28;20060;-76
2021/03/12 05:15:24;;;;;;;2.60;0.80;;;;;;;;;;5007869;28;20076;-76
2021/03/12 05:17:50;;;;;;;1.70;0.70;;;;;;;;;;5017986;28;20038;-76
2021/03/12 05:20:15;;;;;;;3.37;0.80;;;;;;;;;;5048012;28;20495;-76
2021/03/12 05:22:41;;;;;;;0.93;0.50;;;;;;;;;;5053043;28;20488;-76
2021/03/12 05:25:06;;;;;;;1.87;0.80;;;;;;;;;;5053178;28;20068;-76
2021/03/12 05:27:32;;;;;;;2.77;0.80;;;;;;;;;;5018924;28;20531;-76
2021/03/12 05:29:57;;;;;;;2.33;0.80;;;;;;;;;;5035267;28;20028;-76
2021/03/12 05:32:22;;;;;;;2.43;0.90;;;;;;;;;;5032301;28;20543;-76
2021/03/12 05:34:48;;;;;;;2.33;0.90;;;;;;;;;;5018640;28;20492;-76
2021/03/12 05:37:13;;;;;;;1.40;0.60;;;;;;;;;;5009244;28;20455;-76
2021/03/12 05:39:38;;;;;;;1.97;0.90;;;;;;;;;;5018619;28;20464;-76
2021/03/12 05:42:05;;;;;;;2.10;0.80;;;;;;;;;;5018591;28;20057;-75
2021/03/12 05:44:30;;;;;;;1.90;0.63;;;;;;;;;;5018695;28;20033;-75
2021/03/12 05:46:55;;;;;;;2.13;0.80;;;;;;;;;;5004521;28;20046;-75
2021/03/12 05:49:22;;;;;;;1.30;0.53;;;;;;;;;;4998853;28;20069;-75
2021/03/12 05:51:47;;;;;;;1.75;0.80;;;;;;;;;;5015245;28;20121;-75
2021/03/12 05:54:12;;;;;;;1.57;0.77;;;;;;;;;;5018368;28;20072;-76
2021/03/12 05:56:38;;;;;;;2.17;0.80;;;;;;;;;;5018365;28;20055;-76
2021/03/12 05:59:03;;;;;;;1.43;0.57;;;;;;;;;;5052716;28;20072;-76
2021/03/12 06:01:32;;;;;;;2.30;0.70;;;;;;;;;;5018218;28;20534;-75
2021/03/12 06:03:57;;;;;;;1.75;0.60;;;;;;;;;;4995310;28;20034;-75
2021/03/12 06:06:23;;;;;;;2.03;0.93;;;;;;;;;;5012853;28;20407;-76
2021/03/12 06:08:48;;;;;;;1.77;0.67;;;;;;;;;;4995555;28;20030;-76
2021/03/12 06:11:13;;;;;;;2.17;0.77;;;;;;;;;;4979081;28;20065;-75
2021/03/12 06:13:52;;;;;;;1.90;0.90;;;;;;;;;;4979166;28;20037;-76
2021/03/12 06:16:24;;;;;;;2.42;0.70;;;;;;;;;;4979859;28;20046;-75
2021/03/12 06:19:18;;;;;;;2.13;0.82;;;;;;;;;;4995290;28;20026;-75
2021/03/12 06:21:45;;;;;;;1.42;0.70;;;;;;;;;;4995262;28;20496;-76
2021/03/12 06:24:30;;;;;;;1.98;0.75;;;;;;;;;;4978946;28;20034;-75
2021/03/12 06:26:55;;;;;;;1.80;0.57;;;;;;;;;;4979332;28;20036;-75
2021/03/12 06:29:37;;;;;;;2.60;0.70;;;;;;;;;;5003210;28;20029;-76
2021/03/12 06:32:04;;;;;;;2.03;0.70;;;;;;;;;;5019274;28;20029;-75
2021/03/12 06:34:29;;;;;;;1.88;0.70;;;;;;;;;;5018063;28;20074;-75
2021/03/12 06:36:55;;;;;;;1.43;0.53;;;;;;;;;;5018251;28;20025;-75
2021/03/12 06:39:29;;;;;;;2.43;0.70;;;;;;;;;;5051145;28;20120;-75
2021/03/12 06:41:55;;;;;;;1.98;0.70;;;;;;;;;;5017927;28;20114;-75
2021/03/12 06:44:33;;;;;;;1.77;0.70;;;;;;;;;;5053723;28;20503;-75
2021/03/12 06:46:59;;;;;;;2.45;0.90;;;;;;;;;;5038129;28;20029;-75
2021/03/12 06:49:25;;;;;;;2.73;0.87;;;;;;;;;;5021553;28;20060;-76
2021/03/12 06:52:02;;;;;;;2.00;0.70;;;;;;;;;;5021662;28;20044;-76
2021/03/12 06:54:28;;;;;;;2.70;0.70;;;;;;;;;;5022967;28;20029;-76
2021/03/12 06:56:54;;;;;;;1.95;0.63;;;;;;;;;;5021605;28;20037;-76
2021/03/12 06:59:30;;;;;;;1.53;0.70;;;;;;;;;;5021402;28;20128;-76
2021/03/12 07:02:00;;;;;;;1.73;0.60;;;;;;;;;;5021851;28;20029;-76
2021/03/12 07:04:27;;;;;;;1.85;0.57;;;;;;;;;;5021558;28;20033;-76
2021/03/12 07:06:52;;;;;;;1.95;0.68;;;;;;;;;;5021716;28;20032;-76
2021/03/12 07:09:18;;;;;;;1.63;0.70;;;;;;;;;;5021346;28;20028;-76
2021/03/12 07:11:43;;;;;;;1.40;0.60;;;;;;;;;;5037834;28;20033;-76
2021/03/12 07:14:09;;;;;;;1.47;0.60;;;;;;;;;;5021223;28;20130;-76
2021/03/12 07:16:34;;;;;;;1.73;0.70;;;;;;;;;;5021103;28;20365;-76
2021/03/12 07:18:59;;;;;;;1.50;0.70;;;;;;;;;;5021003;28;20039;-76
2021/03/12 07:21:26;;;;;;;1.30;0.60;;;;;;;;;;5037519;28;20489;-76
2021/03/12 07:24:11;;;;;;;;;;;;;;;;;;5021277;28;20091;-76
2021/03/12 07:26:43;;;;;;;1.52;0.60;;;;;;;;;;5053093;28;19912;-76
2021/03/12 07:29:10;;;;;;;1.70;0.68;;;;;;;;;;5037184;28;20447;-76
2021/03/12 07:31:36;;;;;;;1.90;0.80;;;;;;;;;;5020955;28;20091;-76
2021/03/12 07:34:24;;;;;;;1.70;0.68;;;;;;;;;;5055060;28;20025;-76
2021/03/12 07:36:54;;;;;;;2.78;0.85;;;;;;;;;;5040072;28;20489;-76
2021/03/12 07:39:24;;;;;;;2.30;0.80;;;;;;;;;;5021289;28;20546;-76
2021/03/12 07:41:49;;;;;;;1.60;0.65;;;;;;;;;;5020756;28;20036;-76
2021/03/12 07:44:16;;;;;;;1.43;0.60;;;;;;;;;;5020549;28;20035;-76
2021/03/12 07:46:41;;;;;;;2.63;0.70;;;;;;;;;;5020636;28;20033;-76
2021/03/12 07:49:36;;;;;;;1.63;0.70;;;;;;;;;;5020502;28;20454;-76
2021/03/12 07:52:03;;;;;;;2.13;0.60;;;;;;;;;;5028245;28;20124;-76
2021/03/12 07:54:31;;;;;;;;;;;;;;;;;;5037361;28;20036;-76
2021/03/12 07:56:56;;;;;;;1.83;0.70;;;;;;;;;;5054744;28;19915;-76
2021/03/12 07:59:41;;;;;;;1.90;0.63;;;;;;;;;;5036876;28;20490;-76
2021/03/12 08:02:07;;;;;;;1.42;0.60;;;;;;;;;;5039476;28;20029;-76
2021/03/12 08:04:33;;;;;;;1.57;0.50;;;;;;;;;;5020268;28;20569;-76
2021/03/12 08:06:59;;;;;;;1.27;0.60;;;;;;;;;;5020104;28;20033;-76
2021/03/12 08:09:35;;;;;;;1.52;0.63;;;;;;;;;;5036602;28;20040;-76
2021/03/12 08:12:00;;;;;;;1.88;0.60;;;;;;;;;;5020151;28;20040;-76
2021/03/12 08:14:26;;;;;;;1.40;0.53;;;;;;;;;;5053064;28;20033;-76
2021/03/12 08:16:57;;;;;;;2.20;0.63;;;;;;;;;;5020028;28;20036;-76
2021/03/12 08:19:35;;;;;;;1.63;0.57;;;;;;;;;;5055055;28;20404;-76
2021/03/12 08:22:01;;;;;;;1.83;0.70;;;;;;;;;;5020198;28;20049;-76
2021/03/12 08:24:50;;;;;;;1.75;0.50;;;;;;;;;;5019883;28;20049;-76
2021/03/12 08:27:37;;;;;;;1.27;0.50;;;;;;;;;;5053934;28;20036;-76
2021/03/12 08:30:04;;;;;;;;;;;;;;;;;;5054310;28;20036;-76
2021/03/12 08:32:36;;;;;;;1.48;0.57;;;;;;;;;;5036329;28;19939;-76
2021/03/12 08:35:02;;;;;;;1.63;0.68;;;;;;;;;;5036015;28;20503;-76
2021/03/12 08:37:28;;;;;;;1.45;0.57;;;;;;;;;;5019588;28;20036;-76
2021/03/12 08:40:15;;;;;;;1.40;0.50;;;;;;;;;;5053840;28;20033;-76
2021/03/12 08:43:00;;;;;;;1.95;0.80;;;;;;;;;;5053934;28;20063;-76
2021/03/12 08:45:43;;;;;;;1.65;0.50;;;;;;;;;;5035917;28;20043;-76
2021/03/12 08:48:11;;;;;;;2.40;0.70;;;;;;;;;;5019599;28;20043;-76
2021/03/12 08:50:41;;;;;;;1.60;0.52;;;;;;;;;;5035850;28;20395;-76
2021/03/12 08:53:07;;;;;;;1.40;0.65;;;;;;;;;;5035966;28;20033;-76
2021/03/12 08:55:33;;;;;;;1.50;0.50;;;;;;;;;;5002950;28;20111;-76
2021/03/12 08:58:21;;;;;;;1.27;0.60;;;;;;;;;;5019395;28;20045;-76
2021/03/12 09:00:48;;;;;;;1.63;0.70;;;;;;;;;;5019971;28;20040;-76
2021/03/12 09:03:20;;;;;;;2.22;0.60;;;;;;;;;;5019178;28;20313;-76
2021/03/12 09:05:53;;;;;;;1.30;0.52;;;;;;;;;;5045690;22;20049;-76
2021/03/12 09:08:25;;;;;;;1.77;0.60;;;;;;;;;;4988496;28;20065;-76
2021/03/12 09:10:51;;;;;;;1.02;0.50;;;;;;;;;;5012438;28;20038;-76
2021/03/12 09:13:20;;;;;;;1.77;0.60;;;;;;;;;;5028725;28;20118;-76
2021/03/12 09:15:46;;;;;;;1.42;0.50;;;;;;;;;;5012432;28;20399;-76
2021/03/12 09:18:22;;;;;;;1.43;0.50;;;;;;;;;;5003953;28;20042;-76
2021/03/12 09:20:49;;;;;;;2.00;0.70;;;;;;;;;;4995977;28;20218;-76
2021/03/12 09:23:14;;;;;;;2.08;0.60;;;;;;;;;;4995975;28;20273;-76
2021/03/12 09:25:40;;;;;;;1.57;0.60;;;;;;;;;;4995940;28;20380;-76
2021/03/12 09:28:13;;;;;;;2.10;0.60;;;;;;;;;;5013423;28;20069;-76
2021/03/12 09:30:43;;;;;;;1.50;0.55;;;;;;;;;;4995952;28;20034;-76
2021/03/12 09:33:09;;;;;;;1.67;0.60;;;;;;;;;;4995830;28;20496;-76
2021/03/12 09:35:39;;;;;;;1.07;0.50;;;;;;;;;;4995961;28;20053;-76
2021/03/12 09:38:04;;;;;;;1.45;0.55;;;;;;;;;;4995774;28;20081;-76
2021/03/12 09:40:34;;;;;;;2.30;0.60;;;;;;;;;;5011925;28;20121;-76
2021/03/12 09:43:00;;;;;;;1.10;0.40;;;;;;;;;;5012147;28;20087;-76
2021/03/12 09:45:26;;;;;;;1.80;0.60;;;;;;;;;;5028214;28;20401;-76
2021/03/12 09:47:52;;;;;;;1.50;0.60;;;;;;;;;;4992497;28;20042;-76
2021/03/12 09:50:17;;;;;;;1.30;0.50;;;;;;;;;;4992264;28;20034;-76
2021/03/12 09:52:44;;;;;;;1.97;0.50;;;;;;;;;;4992303;28;20038;-75
2021/03/12 09:55:10;;;;;;;1.67;0.50;;;;;;;;;;4992387;28;20154;-76
2021/03/12 09:57:35;;;;;;;1.60;0.50;;;;;;;;;;4992498;28;20486;-76
2021/03/12 10:00:00;;;;;;;1.67;0.57;;;;;;;;;;4992170;28;20560;-76
2021/03/12 10:02:27;;;;;;;1.33;0.60;;;;;;;;;;4976009;28;20066;-76
2021/03/12 10:04:59;;;;;;;1.42;0.57;;;;;;;;;;5008394;28;20109;-75
2021/03/12 10:07:35;;;;;;;1.17;0.50;;;;;;;;;;4992013;28;20061;-76
2021/03/12 10:10:18;;;;;;;1.17;0.45;;;;;;;;;;4992303;28;20485;-76
2021/03/12 10:12:44;;;;;;;1.17;0.52;;;;;;;;;;5008156;28;20045;-76
2021/03/12 10:15:13;;;;;;;1.47;0.60;;;;;;;;;;4992097;28;20030;-76
2021/03/12 10:17:40;;;;;;;1.02;0.50;;;;;;;;;;4992210;28;20122;-76
2021/03/12 10:20:19;;;;;;;1.63;0.52;;;;;;;;;;4994723;28;20034;-76
2021/03/12 10:22:47;;;;;;;2.53;0.50;;;;;;;;;;4995773;28;20039;-76
2021/03/12 10:25:15;;;;;;;1.63;0.60;;;;;;;;;;5011968;28;20069;-76
2021/03/12 10:27:41;;;;;;;1.67;0.60;;;;;;;;;;5011594;28;20027;-76
2021/03/12 10:30:11;;;;;;;1.30;0.60;;;;;;;;;;4997106;28;20053;-76
2021/03/12 10:32:42;;;;;;;1.70;0.40;;;;;;;;;;4995780;28;20425;-76
2021/03/12 10:35:29;;;;;;;1.27;0.50;;;;;;;;;;4995690;28;20030;-76
2021/03/12 10:37:59;;;;;;;;;;;;;;;;;;4997190;28;20030;-76
2021/03/12 10:40:25;;;;;;;1.80;0.50;;;;;;;;;;5011913;28;19940;-76
2021/03/12 10:42:50;;;;;;;1.42;0.50;;;;;;;;;;4995535;28;20509;-76
2021/03/12 10:45:23;;;;;;;1.00;0.50;;;;;;;;;;4995582;28;20169;-76
2021/03/12 10:47:57;;;;;;;1.45;0.45;;;;;;;;;;4978871;28;20065;-76
2021/03/12 10:50:22;;;;;;;1.15;0.50;;;;;;;;;;4995343;28;20030;-76
2021/03/12 10:52:48;;;;;;;1.43;0.50;;;;;;;;;;4995203;28;20045;-76
2021/03/12 10:55:14;;;;;;;1.10;0.53;;;;;;;;;;4979064;28;20026;-76
2021/03/12 10:57:46;;;;;;;1.65;0.50;;;;;;;;;;4995378;28;20026;-75
2021/03/12 11:00:13;;;;;;;2.05;0.60;;;;;;;;;;4995197;28;20034;-76
2021/03/12 11:02:38;;;;;;;1.02;0.38;;;;;;;;;;4995170;28;20058;-76
2021/03/12 11:05:04;;;;;;;1.00;0.50;;;;;;;;;;4995050;28;20434;-76
2021/03/12 11:07:30;;;;;;;1.60;0.50;;;;;;;;;;4994950;28;20563;-75
2021/03/12 11:09:55;;;;;;;1.10;0.50;;;;;;;;;;4994866;28;20034;-76
2021/03/12 11:12:20;;;;;;;1.40;0.53;;;;;;;;;;4994877;28;20038;-75
2021/03/12 11:14:49;;;;;;;1.50;0.60;;;;;;;;;;4994869;28;20053;-76
2021/03/12 11:17:14;;;;;;;1.27;0.40;;;;;;;;;;4978542;28;20121;-76
2021/03/12 11:19:39;;;;;;;1.13;0.50;;;;;;;;;;4994779;28;20117;-76
2021/03/12 11:22:05;;;;;;;0.77;0.40;;;;;;;;;;4978220;28;20046;-76
2021/03/12 11:24:30;;;;;;;1.33;0.40;;;;;;;;;;4994800;28;20125;-76
2021/03/12 11:26:56;;;;;;;1.03;0.40;;;;;;;;;;5010767;28;20065;-76
2021/03/12 11:29:21;;;;;;;1.25;0.50;;;;;;;;;;4994678;28;20069;-76
2021/03/12 11:31:47;;;;;;;1.23;0.50;;;;;;;;;;5010505;28;20077;-76
2021/03/12 11:34:12;;;;;;;0.60;0.30;;;;;;;;;;4994652;28;20026;-76
2021/03/12 11:36:38;;;;;;;0.43;0.30;;;;;;;;;;4977903;28;20434;-76
2021/03/12 11:39:03;;;;;;;1.13;0.50;;;;;;;;;;4995683;28;20139;-76
2021/03/12 11:41:29;;;;;;;1.03;0.40;;;;;;;;;;4978198;28;20034;-76
2021/03/12 11:43:54;;;;;;;0.53;0.30;;;;;;;;;;4994470;28;20505;-76
2021/03/12 11:46:19;;;;;;;1.13;0.40;;;;;;;;;;5010233;28;20185;-76
2021/03/12 11:48:45;;;;;;;3.53;0.50;;;;;;;;;;4995439;28;20074;-76
2021/03/12 11:51:10;;;;;;;1.10;0.43;;;;;;;;;;4994256;28;20053;-75
2021/03/12 11:53:36;;;;;;;1.53;0.50;;;;;;;;;;4994249;28;20030;-75
2021/03/12 11:56:01;;;;;;;1.20;0.40;;;;;;;;;;4994103;28;20078;-76
2021/03/12 11:58:26;;;;;;;1.27;0.47;;;;;;;;;;4993571;28;20026;-76
2021/03/12 12:00:52;;;;;;;1.57;0.47;;;;;;;;;;4977592;28;20061;-75
2021/03/12 12:03:17;;;;;;;1.27;0.50;;;;;;;;;;4994056;28;20501;-76
2021/03/12 12:05:43;;;;;;;1.50;0.40;;;;;;;;;;4993802;28;20486;-76
2021/03/12 12:08:08;;;;;;;2.00;0.50;;;;;;;;;;4993875;28;20049;-76
2021/03/12 12:10:34;;;;;;;3.07;0.57;;;;;;;;;;5009951;28;20122;-75
2021/03/12 12:12:59;;;;;;;0.63;0.33;;;;;;;;;;4977320;28;20030;-76
2021/03/12 12:15:27;;;;;;;1.03;0.50;;;;;;;;;;4993860;28;20044;-76
2021/03/12 12:17:59;;;;;;;0.60;0.30;;;;;;;;;;4994823;28;20030;-75
2021/03/12 12:20:24;;;;;;;1.35;0.50;;;;;;;;;;4993864;28;20034;-76
2021/03/12 12:22:49;;;;;;;1.07;0.47;;;;;;;;;;4993421;28;20035;-76
2021/03/12 12:25:15;;;;;;;1.57;0.40;;;;;;;;;;4993515;28;20062;-76
2021/03/12 12:27:40;;;;;;;0.90;0.40;;;;;;;;;;4993202;28;20030;-76
2021/03/12 12:30:06;;;;;;;0.93;0.50;;;;;;;;;;5009684;28;20038;-76
2021/03/12 12:32:31;;;;;;;1.33;0.50;;;;;;;;;;4993338;28;20095;-76
2021/03/12 12:34:57;;;;;;;1.07;0.50;;;;;;;;;;4993308;28;20508;-76
2021/03/12 12:37:23;;;;;;;1.60;0.40;;;;;;;;;;4993231;28;20049;-76
2021/03/12 12:39:48;;;;;;;1.38;0.40;;;;;;;;;;4993305;28;20149;-76
2021/03/12 12:42:13;;;;;;;0.90;0.30;;;;;;;;;;4992504;28;20038;-76
2021/03/12 12:44:39;;;;;;;1.13;0.40;;;;;;;;;;4993111;28;20041;-76
2021/03/12 12:47:04;;;;;;;1.40;0.50;;;;;;;;;;4992976;28;20468;-76
2021/03/12 12:49:29;;;;;;;0.90;0.40;;;;;;;;;;5009444;28;20058;-75
2021/03/12 12:51:55;;;;;;;1.73;0.50;;;;;;;;;;5009721;28;20061;-76
2021/03/12 12:54:20;;;;;;;1.43;0.43;;;;;;;;;;5009321;28;20057;-76
2021/03/12 12:56:45;;;;;;;0.97;0.30;;;;;;;;;;5009363;28;20117;-76
2021/03/12 12:59:11;;;;;;;1.40;0.40;;;;;;;;;;4992845;28;20112;-76
2021/03/12 13:01:36;;;;;;;1.13;0.50;;;;;;;;;;4992802;28;20084;-75
2021/03/12 13:04:01;;;;;;;1.33;0.37;;;;;;;;;;5004748;28;20029;-76
2021/03/12 13:06:27;;;;;;;0.90;0.40;;;;;;;;;;5016339;28;20392;-76
2021/03/12 13:08:52;;;;;;;0.80;0.40;;;;;;;;;;5031477;28;20033;-75
2021/03/12 13:11:17;;;;;;;0.60;0.30;;;;;;;;;;5026741;28;20875;-76
2021/03/12 13:13:43;;;;;;;1.10;0.40;;;;;;;;;;5035198;28;20033;-76
2021/03/12 13:16:09;;;;;;;1.03;0.50;;;;;;;;;;5032847;28;20100;-76
2021/03/12 13:18:35;;;;;;;;;;;;;;;;;;5032235;28;20083;-76
2021/03/12 13:21:03;;;;;;;0.68;0.30;;;;;;;;;;5017636;28;19913;-76
2021/03/12 13:23:29;;;;;;;0.88;0.38;;;;;;;;;;4998916;28;20029;-75
2021/03/12 13:25:54;;;;;;;1.03;0.50;;;;;;;;;;5028833;28;20167;-76
2021/03/12 13:28:20;;;;;;;0.80;0.33;;;;;;;;;;5012122;28;20037;-76
2021/03/12 13:30:46;;;;;;;1.27;0.50;;;;;;;;;;5013123;28;20038;-75
2021/03/12 13:33:12;;;;;;;1.20;0.40;;;;;;;;;;5031877;28;20033;-76
2021/03/12 13:35:37;;;;;;;1.03;0.40;;;;;;;;;;5031954;28;20116;-75
2021/03/12 13:38:03;;;;;;;0.67;0.30;;;;;;;;;;5045161;28;20562;-76
2021/03/12 13:40:28;;;;;;;1.17;0.50;;;;;;;;;;5029581;28;20030;-76
2021/03/12 13:42:57;;;;;;;1.13;0.50;;;;;;;;;;5040744;28;20575;-75
2021/03/12 13:45:23;;;;;;;0.70;0.30;;;;;;;;;;5000537;28;20076;-76
2021/03/12 13:47:48;;;;;;;1.33;0.50;;;;;;;;;;5011886;28;20489;-75
2021/03/12 13:50:13;;;;;;;0.93;0.30;;;;;;;;;;5011954;28;20565;-75
2021/03/12 13:52:39;;;;;;;1.87;0.60;;;;;;;;;;5028047;28;20026;-75
2021/03/12 13:55:08;;;;;;;0.93;0.40;;;;;;;;;;5015849;28;20026;-75
2021/03/12 13:57:34;;;;;;;0.73;0.40;;;;;;;;;;5015948;28;20108;-76
2021/03/12 13:59:59;;;;;;;0.80;0.40;;;;;;;;;;5016119;28;20084;-76
2021/03/12 14:02:24;;;;;;;1.67;0.50;;;;;;;;;;5032350;28;20124;-76
2021/03/12 14:04:50;;;;;;;0.80;0.40;;;;;;;;;;5016807;28;20068;-76
2021/03/12 14:07:15;;;;;;;1.27;0.40;;;;;;;;;;4983149;28;20060;-76
2021/03/12 14:09:40;;;;;;;0.70;0.23;;;;;;;;;;5015616;28;20523;-76
2021/03/12 14:12:06;;;;;;;0.57;0.30;;;;;;;;;;5015516;28;20485;-76
2021/03/12 14:14:31;;;;;;;0.73;0.30;;;;;;;;;;5015442;28;20437;-76
2021/03/12 14:16:56;;;;;;;0.50;0.30;;;;;;;;;;5015435;28;20029;-76
2021/03/12 14:19:22;;;;;;;0.77;0.27;;;;;;;;;;4998815;28;20069;-76
2021/03/12 14:21:47;;;;;;;1.10;0.40;;;;;;;;;;4998984;28;20061;-76
2021/03/12 14:24:16;;;;;;;1.27;0.30;;;;;;;;;;5014758;28;20499;-76
2021/03/12 14:26:42;;;;;;;0.80;0.30;;;;;;;;;;5016337;28;20037;-76
2021/03/12 14:29:09;;;;;;;1.02;0.30;;;;;;;;;;5015254;28;20088;-76
2021/03/12 14:31:34;;;;;;;0.95;0.40;;;;;;;;;;4998784;28;20026;-75
2021/03/12 14:33:59;;;;;;;1.13;0.40;;;;;;;;;;5015515;28;20108;-76
2021/03/12 14:36:25;;;;;;;1.40;0.50;;;;;;;;;;5015105;28;20516;-76
2021/03/12 14:38:50;;;;;;;1.13;0.40;;;;;;;;;;5015201;28;20524;-75
2021/03/12 14:41:15;;;;;;;0.77;0.40;;;;;;;;;;4998632;28;20441;-76
2021/03/12 14:43:40;;;;;;;1.20;0.40;;;;;;;;;;5014979;28;20092;-76
2021/03/12 14:46:06;;;;;;;1.33;0.50;;;;;;;;;;5014983;28;20066;-76
2021/03/12 14:48:32;;;;;;;0.70;0.33;;;;;;;;;;4998673;28;20061;-76
2021/03/12 14:50:57;;;;;;;0.67;0.30;;;;;;;;;;4998668;28;20060;-76
2021/03/12 14:53:23;;;;;;;0.77;0.20;;;;;;;;;;5014802;28;20033;-76
2021/03/12 14:55:48;;;;;;;1.27;0.50;;;;;;;;;;5014862;28;20069;-76
2021/03/12 14:58:13;;;;;;;0.70;0.30;;;;;;;;;;5015791;28;20062;-76